sensor_id;sensor_type;location;lat;lon;timestamp;pressure;altitude;pressure_sealevel;temperature;humidity
61963;BME280;47927;42.646;23.096;2022-08-19T00:00:20;92058.53;;;19.83;51.89
61963;BME280;47927;42.646;23.096;2022-08-19T00:02:46;92058.41;;;19.73;52.00
61963;BME280;47927;42.646;23.096;2022-08-19T00:05:14;92064.25;;;19.81;51.99
61963;BME280;47927;42.646;23.096;2022-08-19T00:07:41;92063.72;;;19.86;51.76
61963;BME280;47927;42.646;23.096;2022-08-19T00:10:09;92068.53;;;19.75;52.17
61963;BME280;47927;42.646;23.096;2022-08-19T00:12:35;92065.28;;;19.54;52.55
61963;BME280;47927;42.646;23.096;2022-08-19T00:15:08;92067.25;;;19.67;52.46
61963;BME280;47927;42.646;23.096;2022-08-19T00:17:39;92071.22;;;19.58;52.60
61963;BME280;47927;42.646;23.096;2022-08-19T00:20:06;92083.47;;;19.52;52.80
61963;BME280;47927;42.646;23.096;2022-08-19T00:22:32;92076.59;;;19.55;52.64
61963;BME280;47927;42.646;23.096;2022-08-19T00:24:58;92074.03;;;19.68;52.15
61963;BME280;47927;42.646;23.096;2022-08-19T00:27:24;92077.97;;;19.76;51.88
61963;BME280;47927;42.646;23.096;2022-08-19T00:29:49;92068.63;;;19.71;51.97
61963;BME280;47927;42.646;23.096;2022-08-19T00:32:16;92067.06;;;19.74;51.70
61963;BME280;47927;42.646;23.096;2022-08-19T00:34:41;92068.75;;;19.80;51.67
61963;BME280;47927;42.646;23.096;2022-08-19T00:37:08;92063.06;;;19.82;51.80
61963;BME280;47927;42.646;23.096;2022-08-19T00:39:34;92062.00;;;19.79;52.00
61963;BME280;47927;42.646;23.096;2022-08-19T00:41:59;92070.16;;;19.56;52.30
61963;BME280;47927;42.646;23.096;2022-08-19T00:44:27;92056.41;;;19.48;52.26
61963;BME280;47927;42.646;23.096;2022-08-19T00:46:55;92060.91;;;19.48;52.15
61963;BME280;47927;42.646;23.096;2022-08-19T00:49:37;92066.44;;;19.70;51.73
61963;BME280;47927;42.646;23.096;2022-08-19T00:52:12;92062.47;;;19.62;51.81
61963;BME280;47927;42.646;23.096;2022-08-19T00:54:40;92061.03;;;19.73;51.46
61963;BME280;47927;42.646;23.096;2022-08-19T00:57:10;92057.13;;;19.78;51.45
61963;BME280;47927;42.646;23.096;2022-08-19T00:59:42;92054.19;;;19.76;51.51
61963;BME280;47927;42.646;23.096;2022-08-19T01:02:08;92060.47;;;19.66;51.84
61963;BME280;47927;42.646;23.096;2022-08-19T01:04:34;92050.13;;;19.42;52.15
61963;BME280;47927;42.646;23.096;2022-08-19T01:07:02;92056.63;;;19.08;53.36
61963;BME280;47927;42.646;23.096;2022-08-19T01:09:28;92056.81;;;19.01;53.51
61963;BME280;47927;42.646;23.096;2022-08-19T01:11:54;92054.22;;;19.14;52.91
61963;BME280;47927;42.646;23.096;2022-08-19T01:14:21;92057.03;;;19.23;52.97
61963;BME280;47927;42.646;23.096;2022-08-19T01:16:47;92049.34;;;19.29;52.52
61963;BME280;47927;42.646;23.096;2022-08-19T01:19:35;92043.94;;;19.49;52.18
61963;BME280;47927;42.646;23.096;2022-08-19T01:22:16;92042.03;;;19.49;51.94
61963;BME280;47927;42.646;23.096;2022-08-19T01:24:44;92047.34;;;19.62;51.64
61963;BME280;47927;42.646;23.096;2022-08-19T01:27:10;92043.72;;;19.56;51.66
61963;BME280;47927;42.646;23.096;2022-08-19T01:29:39;92056.16;;;19.43;52.19
61963;BME280;47927;42.646;23.096;2022-08-19T01:32:06;92049.84;;;19.24;52.67
61963;BME280;47927;42.646;23.096;2022-08-19T01:34:32;92043.91;;;19.20;52.84
61963;BME280;47927;42.646;23.096;2022-08-19T01:37:00;92047.03;;;19.31;52.72
61963;BME280;47927;42.646;23.096;2022-08-19T01:39:30;92051.22;;;18.83;53.74
61963;BME280;47927;42.646;23.096;2022-08-19T01:41:56;92038.81;;;18.80;53.73
61963;BME280;47927;42.646;23.096;2022-08-19T01:44:21;92049.03;;;18.45;55.03
61963;BME280;47927;42.646;23.096;2022-08-19T01:46:50;92055.19;;;18.75;54.50
61963;BME280;47927;42.646;23.096;2022-08-19T01:49:18;92049.13;;;19.07;53.48
61963;BME280;47927;42.646;23.096;2022-08-19T01:51:45;92049.53;;;19.05;53.29
61963;BME280;47927;42.646;23.096;2022-08-19T01:54:12;92044.13;;;18.96;53.48
61963;BME280;47927;42.646;23.096;2022-08-19T01:56:38;92043.03;;;18.94;53.52
61963;BME280;47927;42.646;23.096;2022-08-19T01:59:11;92040.88;;;19.05;53.27
61963;BME280;47927;42.646;23.096;2022-08-19T02:01:38;92045.88;;;19.32;52.52
61963;BME280;47927;42.646;23.096;2022-08-19T02:04:04;92046.75;;;19.42;52.82
61963;BME280;47927;42.646;23.096;2022-08-19T02:06:31;92040.72;;;19.41;53.23
61963;BME280;47927;42.646;23.096;2022-08-19T02:08:56;92039.59;;;19.26;52.88
61963;BME280;47927;42.646;23.096;2022-08-19T02:11:41;92044.88;;;19.26;53.45
61963;BME280;47927;42.646;23.096;2022-08-19T02:14:07;92045.91;;;19.16;53.82
61963;BME280;47927;42.646;23.096;2022-08-19T02:16:34;92045.75;;;19.06;53.78
61963;BME280;47927;42.646;23.096;2022-08-19T02:19:00;92045.81;;;19.03;53.53
61963;BME280;47927;42.646;23.096;2022-08-19T02:21:26;92044.75;;;19.00;53.19
61963;BME280;47927;42.646;23.096;2022-08-19T02:23:52;92042.38;;;18.89;53.44
61963;BME280;47927;42.646;23.096;2022-08-19T02:26:18;92052.38;;;18.98;53.36
61963;BME280;47927;42.646;23.096;2022-08-19T02:28:44;92050.81;;;19.01;53.11
61963;BME280;47927;42.646;23.096;2022-08-19T02:31:16;92052.31;;;19.15;52.83
61963;BME280;47927;42.646;23.096;2022-08-19T02:33:42;92045.91;;;19.16;52.71
61963;BME280;47927;42.646;23.096;2022-08-19T02:36:10;92049.94;;;19.20;53.01
61963;BME280;47927;42.646;23.096;2022-08-19T02:38:36;92038.38;;;19.14;53.29
61963;BME280;47927;42.646;23.096;2022-08-19T02:41:16;92041.03;;;19.14;53.50
61963;BME280;47927;42.646;23.096;2022-08-19T02:43:42;92042.16;;;18.84;54.00
61963;BME280;47927;42.646;23.096;2022-08-19T02:46:16;92038.97;;;18.73;54.67
61963;BME280;47927;42.646;23.096;2022-08-19T02:48:43;92043.53;;;18.72;54.46
61963;BME280;47927;42.646;23.096;2022-08-19T02:51:15;92046.16;;;18.88;54.42
61963;BME280;47927;42.646;23.096;2022-08-19T02:53:41;92044.59;;;18.91;53.96
61963;BME280;47927;42.646;23.096;2022-08-19T02:56:07;92046.09;;;18.92;53.94
61963;BME280;47927;42.646;23.096;2022-08-19T02:58:33;92040.97;;;18.85;53.90
61963;BME280;47927;42.646;23.096;2022-08-19T03:00:59;92044.78;;;18.84;54.24
61963;BME280;47927;42.646;23.096;2022-08-19T03:03:25;92040.34;;;18.81;54.34
61963;BME280;47927;42.646;23.096;2022-08-19T03:05:50;92046.09;;;18.76;54.29
61963;BME280;47927;42.646;23.096;2022-08-19T03:08:16;92042.44;;;18.70;54.47
61963;BME280;47927;42.646;23.096;2022-08-19T03:10:46;92045.81;;;18.70;54.70
61963;BME280;47927;42.646;23.096;2022-08-19T03:13:14;92041.13;;;18.61;55.00
61963;BME280;47927;42.646;23.096;2022-08-19T03:15:42;92039.97;;;18.30;55.69
61963;BME280;47927;42.646;23.096;2022-08-19T03:18:08;92043.25;;;18.17;56.20
61963;BME280;47927;42.646;23.096;2022-08-19T03:20:43;92046.31;;;18.32;56.31
61963;BME280;47927;42.646;23.096;2022-08-19T03:23:09;92046.72;;;18.47;55.68
61963;BME280;47927;42.646;23.096;2022-08-19T03:25:45;92051.66;;;18.29;55.90
61963;BME280;47927;42.646;23.096;2022-08-19T03:28:13;92048.72;;;18.07;56.89
61963;BME280;47927;42.646;23.096;2022-08-19T03:30:41;92055.09;;;18.26;56.16
61963;BME280;47927;42.646;23.096;2022-08-19T03:33:08;92054.97;;;18.33;56.37
61963;BME280;47927;42.646;23.096;2022-08-19T03:35:33;92052.53;;;18.22;56.08
61963;BME280;47927;42.646;23.096;2022-08-19T03:38:03;92060.38;;;18.26;56.59
61963;BME280;47927;42.646;23.096;2022-08-19T03:40:29;92065.69;;;18.42;55.87
61963;BME280;47927;42.646;23.096;2022-08-19T03:42:56;92071.63;;;18.46;55.48
61963;BME280;47927;42.646;23.096;2022-08-19T03:45:22;92060.72;;;18.44;55.33
61963;BME280;47927;42.646;23.096;2022-08-19T03:47:48;92074.16;;;18.50;55.27
61963;BME280;47927;42.646;23.096;2022-08-19T03:50:14;92079.69;;;18.55;55.25
61963;BME280;47927;42.646;23.096;2022-08-19T03:52:40;92072.38;;;18.63;55.11
61963;BME280;47927;42.646;23.096;2022-08-19T03:55:06;92070.72;;;18.69;55.33
61963;BME280;47927;42.646;23.096;2022-08-19T03:57:33;92071.13;;;18.67;55.26
61963;BME280;47927;42.646;23.096;2022-08-19T04:00:00;92078.66;;;18.69;55.21
61963;BME280;47927;42.646;23.096;2022-08-19T04:02:26;92088.75;;;18.90;54.84
61963;BME280;47927;42.646;23.096;2022-08-19T04:04:53;92083.25;;;19.59;53.26
61963;BME280;47927;42.646;23.096;2022-08-19T04:07:20;92083.75;;;20.25;51.65
61963;BME280;47927;42.646;23.096;2022-08-19T04:09:47;92088.47;;;20.73;50.41
61963;BME280;47927;42.646;23.096;2022-08-19T04:12:13;92085.06;;;21.32;48.79
61963;BME280;47927;42.646;23.096;2022-08-19T04:14:38;92088.38;;;21.93;47.34
61963;BME280;47927;42.646;23.096;2022-08-19T04:17:04;92093.53;;;22.41;46.38
61963;BME280;47927;42.646;23.096;2022-08-19T04:19:31;92093.03;;;23.05;44.60
61963;BME280;47927;42.646;23.096;2022-08-19T04:21:57;92095.63;;;23.63;42.99
61963;BME280;47927;42.646;23.096;2022-08-19T04:24:23;92100.91;;;24.28;42.01
61963;BME280;47927;42.646;23.096;2022-08-19T04:26:50;92087.84;;;24.58;40.90
61963;BME280;47927;42.646;23.096;2022-08-19T04:29:18;92091.28;;;24.49;41.20
61963;BME280;47927;42.646;23.096;2022-08-19T04:31:45;92098.75;;;25.02;40.35
61963;BME280;47927;42.646;23.096;2022-08-19T04:34:12;92090.25;;;25.37;39.56
61963;BME280;47927;42.646;23.096;2022-08-19T04:36:40;92093.56;;;25.32;39.22
61963;BME280;47927;42.646;23.096;2022-08-19T04:39:10;92096.34;;;25.37;39.28
61963;BME280;47927;42.646;23.096;2022-08-19T04:41:36;92095.03;;;25.33;39.91
61963;BME280;47927;42.646;23.096;2022-08-19T04:44:20;92097.63;;;25.66;39.26
61963;BME280;47927;42.646;23.096;2022-08-19T04:46:47;92087.84;;;26.02;38.56
61963;BME280;47927;42.646;23.096;2022-08-19T04:49:15;92098.84;;;26.63;37.25
61963;BME280;47927;42.646;23.096;2022-08-19T04:51:44;92100.44;;;27.05;36.82
61963;BME280;47927;42.646;23.096;2022-08-19T04:54:11;92102.91;;;27.44;35.72
61963;BME280;47927;42.646;23.096;2022-08-19T04:56:36;92105.28;;;28.03;34.38
61963;BME280;47927;42.646;23.096;2022-08-19T04:59:03;92100.69;;;28.56;33.75
61963;BME280;47927;42.646;23.096;2022-08-19T05:01:31;92096.16;;;29.05;33.15
61963;BME280;47927;42.646;23.096;2022-08-19T05:04:01;92102.84;;;29.69;32.43
61963;BME280;47927;42.646;23.096;2022-08-19T05:06:31;92111.84;;;30.99;30.68
61963;BME280;47927;42.646;23.096;2022-08-19T05:09:04;92108.75;;;32.29;29.00
61963;BME280;47927;42.646;23.096;2022-08-19T05:11:33;92105.72;;;33.34;27.03
61963;BME280;47927;42.646;23.096;2022-08-19T05:13:59;92098.47;;;34.29;25.65
61963;BME280;47927;42.646;23.096;2022-08-19T05:16:26;92108.69;;;35.20;24.21
61963;BME280;47927;42.646;23.096;2022-08-19T05:18:52;92112.41;;;35.96;23.24
61963;BME280;47927;42.646;23.096;2022-08-19T05:21:42;92120.78;;;36.46;22.83
61963;BME280;47927;42.646;23.096;2022-08-19T05:24:27;92118.16;;;37.37;20.78
61963;BME280;47927;42.646;23.096;2022-08-19T05:26:54;92124.50;;;37.69;20.46
61963;BME280;47927;42.646;23.096;2022-08-19T05:29:23;92120.34;;;38.04;19.94
61963;BME280;47927;42.646;23.096;2022-08-19T05:31:51;92118.59;;;38.73;19.78
61963;BME280;47927;42.646;23.096;2022-08-19T05:34:18;92122.38;;;39.70;17.59
61963;BME280;47927;42.646;23.096;2022-08-19T05:36:47;92117.56;;;40.09;17.58
61963;BME280;47927;42.646;23.096;2022-08-19T05:39:19;92112.13;;;40.49;17.14
61963;BME280;47927;42.646;23.096;2022-08-19T05:41:47;92127.81;;;41.49;16.37
61963;BME280;47927;42.646;23.096;2022-08-19T05:44:14;92132.25;;;41.79;15.99
61963;BME280;47927;42.646;23.096;2022-08-19T05:46:43;92130.63;;;42.01;16.52
61963;BME280;47927;42.646;23.096;2022-08-19T05:49:08;92123.75;;;42.27;15.38
61963;BME280;47927;42.646;23.096;2022-08-19T05:51:35;92129.72;;;42.61;15.75
61963;BME280;47927;42.646;23.096;2022-08-19T05:54:03;92119.41;;;43.52;14.62
61963;BME280;47927;42.646;23.096;2022-08-19T05:56:30;92118.00;;;44.29;14.31
61963;BME280;47927;42.646;23.096;2022-08-19T05:58:57;92127.97;;;44.34;14.88
61963;BME280;47927;42.646;23.096;2022-08-19T06:01:25;92122.56;;;44.75;14.00
61963;BME280;47927;42.646;23.096;2022-08-19T06:03:50;92123.50;;;44.19;14.47
61963;BME280;47927;42.646;23.096;2022-08-19T06:06:16;92126.31;;;44.79;13.19
61963;BME280;47927;42.646;23.096;2022-08-19T06:08:42;92133.84;;;45.41;14.02
61963;BME280;47927;42.646;23.096;2022-08-19T06:11:23;92132.22;;;45.48;13.25
61963;BME280;47927;42.646;23.096;2022-08-19T06:13:52;92132.00;;;46.08;12.83
61963;BME280;47927;42.646;23.096;2022-08-19T06:16:20;92133.31;;;46.74;11.65
61963;BME280;47927;42.646;23.096;2022-08-19T06:18:52;92127.38;;;47.13;11.83
61963;BME280;47927;42.646;23.096;2022-08-19T06:21:22;92137.28;;;47.30;11.13
61963;BME280;47927;42.646;23.096;2022-08-19T06:23:49;92139.22;;;47.27;10.95
61963;BME280;47927;42.646;23.096;2022-08-19T06:26:17;92134.44;;;47.39;11.04
61963;BME280;47927;42.646;23.096;2022-08-19T06:28:44;92137.53;;;47.69;10.64
61963;BME280;47927;42.646;23.096;2022-08-19T06:31:17;92133.44;;;48.19;10.46
61963;BME280;47927;42.646;23.096;2022-08-19T06:33:44;92127.72;;;47.54;10.55
61963;BME280;47927;42.646;23.096;2022-08-19T06:36:27;92136.00;;;47.07;11.31
61963;BME280;47927;42.646;23.096;2022-08-19T06:38:55;92137.16;;;47.63;11.43
61963;BME280;47927;42.646;23.096;2022-08-19T06:41:26;92135.50;;;47.11;10.75
61963;BME280;47927;42.646;23.096;2022-08-19T06:43:53;92133.59;;;47.98;10.46
61963;BME280;47927;42.646;23.096;2022-08-19T06:46:20;92134.78;;;48.06;10.33
61963;BME280;47927;42.646;23.096;2022-08-19T06:48:47;92129.09;;;48.93;11.17
61963;BME280;47927;42.646;23.096;2022-08-19T06:51:15;92135.16;;;49.03;11.02
61963;BME280;47927;42.646;23.096;2022-08-19T06:53:45;92139.06;;;49.53;11.43
61963;BME280;47927;42.646;23.096;2022-08-19T06:56:14;92137.97;;;49.44;10.67
61963;BME280;47927;42.646;23.096;2022-08-19T06:58:40;92144.91;;;49.32;10.54
61963;BME280;47927;42.646;23.096;2022-08-19T07:01:06;92150.00;;;48.45;10.31
61963;BME280;47927;42.646;23.096;2022-08-19T07:03:34;92141.34;;;48.76;11.23
61963;BME280;47927;42.646;23.096;2022-08-19T07:06:06;92145.31;;;49.12;10.20
61963;BME280;47927;42.646;23.096;2022-08-19T07:08:33;92153.72;;;49.56;9.87
61963;BME280;47927;42.646;23.096;2022-08-19T07:11:00;92145.34;;;49.67;10.13
61963;BME280;47927;42.646;23.096;2022-08-19T07:13:26;92140.09;;;49.73;10.27
61963;BME280;47927;42.646;23.096;2022-08-19T07:15:51;92152.03;;;50.20;9.27
61963;BME280;47927;42.646;23.096;2022-08-19T07:18:19;92145.03;;;50.32;9.24
61963;BME280;47927;42.646;23.096;2022-08-19T07:20:46;92145.44;;;50.56;9.10
61963;BME280;47927;42.646;23.096;2022-08-19T07:23:12;92141.94;;;49.83;9.58
61963;BME280;47927;42.646;23.096;2022-08-19T07:25:37;92147.88;;;49.91;9.30
61963;BME280;47927;42.646;23.096;2022-08-19T07:28:04;92149.59;;;48.62;9.87
61963;BME280;47927;42.646;23.096;2022-08-19T07:30:30;92145.56;;;49.30;9.94
61963;BME280;47927;42.646;23.096;2022-08-19T07:32:56;92141.63;;;49.90;9.33
61963;BME280;47927;42.646;23.096;2022-08-19T07:35:22;92142.16;;;49.18;9.87
61963;BME280;47927;42.646;23.096;2022-08-19T07:37:49;92145.72;;;49.89;9.84
61963;BME280;47927;42.646;23.096;2022-08-19T07:40:14;92147.88;;;49.91;9.73
61963;BME280;47927;42.646;23.096;2022-08-19T07:42:40;92146.56;;;50.22;10.08
61963;BME280;47927;42.646;23.096;2022-08-19T07:45:06;92148.47;;;49.20;9.68
61963;BME280;47927;42.646;23.096;2022-08-19T07:47:33;92145.00;;;49.89;9.87
61963;BME280;47927;42.646;23.096;2022-08-19T07:49:58;92143.00;;;50.78;9.29
61963;BME280;47927;42.646;23.096;2022-08-19T07:52:24;92145.34;;;49.95;8.72
61963;BME280;47927;42.646;23.096;2022-08-19T07:54:49;92148.25;;;50.13;9.36
61963;BME280;47927;42.646;23.096;2022-08-19T07:57:16;92153.84;;;49.99;9.80
61963;BME280;47927;42.646;23.096;2022-08-19T07:59:41;92149.03;;;49.44;9.86
61963;BME280;47927;42.646;23.096;2022-08-19T08:02:08;92145.72;;;49.89;8.94
61963;BME280;47927;42.646;23.096;2022-08-19T08:04:34;92145.75;;;49.76;9.45
61963;BME280;47927;42.646;23.096;2022-08-19T08:07:19;92152.72;;;49.49;9.41
61963;BME280;47927;42.646;23.096;2022-08-19T08:10:05;92150.97;;;49.28;9.22
61963;BME280;47927;42.646;23.096;2022-08-19T08:12:35;92141.16;;;49.39;9.74
61963;BME280;47927;42.646;23.096;2022-08-19T08:15:10;92145.84;;;49.50;10.26
61963;BME280;47927;42.646;23.096;2022-08-19T08:17:36;92146.03;;;49.96;8.99
61963;BME280;47927;42.646;23.096;2022-08-19T08:20:05;92139.50;;;50.78;8.63
61963;BME280;47927;42.646;23.096;2022-08-19T08:22:34;92132.72;;;50.22;9.50
61963;BME280;47927;42.646;23.096;2022-08-19T08:25:21;92133.78;;;49.57;10.11
61963;BME280;47927;42.646;23.096;2022-08-19T08:27:48;92139.13;;;50.10;9.42
61963;BME280;47927;42.646;23.096;2022-08-19T08:30:21;92134.06;;;49.63;9.58
61963;BME280;47927;42.646;23.096;2022-08-19T08:32:48;92134.03;;;49.91;8.97
61963;BME280;47927;42.646;23.096;2022-08-19T08:35:15;92129.38;;;50.69;9.34
61963;BME280;47927;42.646;23.096;2022-08-19T08:37:43;92134.16;;;51.14;9.62
61963;BME280;47927;42.646;23.096;2022-08-19T08:40:20;92130.44;;;50.61;9.52
61963;BME280;47927;42.646;23.096;2022-08-19T08:42:58;92119.28;;;50.30;8.91
61963;BME280;47927;42.646;23.096;2022-08-19T08:45:28;92120.03;;;50.46;8.75
61963;BME280;47927;42.646;23.096;2022-08-19T08:47:56;92120.22;;;50.21;8.59
61963;BME280;47927;42.646;23.096;2022-08-19T08:50:31;92112.69;;;50.37;7.93
61963;BME280;47927;42.646;23.096;2022-08-19T08:53:02;92121.16;;;50.11;8.90
61963;BME280;47927;42.646;23.096;2022-08-19T08:55:30;92112.94;;;50.73;8.17
61963;BME280;47927;42.646;23.096;2022-08-19T08:58:06;92108.88;;;50.01;8.73
61963;BME280;47927;42.646;23.096;2022-08-19T09:00:39;92112.94;;;50.73;8.31
61963;BME280;47927;42.646;23.096;2022-08-19T09:03:31;92117.06;;;50.88;7.94
61963;BME280;47927;42.646;23.096;2022-08-19T09:06:07;92113.41;;;49.94;8.68
61963;BME280;47927;42.646;23.096;2022-08-19T09:08:45;92102.66;;;50.30;8.53
61963;BME280;47927;42.646;23.096;2022-08-19T09:11:25;92103.88;;;49.97;8.34
61963;BME280;47927;42.646;23.096;2022-08-19T09:14:05;92107.50;;;50.45;7.96
61963;BME280;47927;42.646;23.096;2022-08-19T09:16:34;92105.75;;;49.92;8.75
61963;BME280;47927;42.646;23.096;2022-08-19T09:19:04;92104.22;;;49.76;7.54
61963;BME280;47927;42.646;23.096;2022-08-19T09:21:30;92105.94;;;49.83;8.45
61963;BME280;47927;42.646;23.096;2022-08-19T09:23:57;92098.91;;;50.09;7.80
61963;BME280;47927;42.646;23.096;2022-08-19T09:26:24;92090.13;;;49.85;8.37
61963;BME280;47927;42.646;23.096;2022-08-19T09:28:52;92101.38;;;49.32;8.12
61963;BME280;47927;42.646;23.096;2022-08-19T09:31:23;92087.53;;;48.26;8.03
61963;BME280;47927;42.646;23.096;2022-08-19T09:33:50;92090.81;;;47.12;7.98
61963;BME280;47927;42.646;23.096;2022-08-19T09:36:19;92089.03;;;48.03;7.85
61963;BME280;47927;42.646;23.096;2022-08-19T09:38:45;92085.41;;;47.02;7.81
61963;BME280;47927;42.646;23.096;2022-08-19T09:41:13;92087.84;;;46.51;8.80
61963;BME280;47927;42.646;23.096;2022-08-19T09:43:41;92100.00;;;46.81;7.94
61963;BME280;47927;42.646;23.096;2022-08-19T09:46:08;92082.88;;;46.83;7.17
61963;BME280;47927;42.646;23.096;2022-08-19T09:48:54;92085.81;;;46.64;7.46
61963;BME280;47927;42.646;23.096;2022-08-19T09:51:24;92079.84;;;46.22;7.58
61963;BME280;47927;42.646;23.096;2022-08-19T09:53:52;92074.09;;;44.00;9.62
61963;BME280;47927;42.646;23.096;2022-08-19T09:56:19;92064.84;;;44.65;9.70
61963;BME280;47927;42.646;23.096;2022-08-19T09:58:46;92073.31;;;44.48;10.01
61963;BME280;47927;42.646;23.096;2022-08-19T10:01:17;92063.03;;;45.52;9.23
61963;BME280;47927;42.646;23.096;2022-08-19T10:03:42;92061.53;;;44.67;9.75
61963;BME280;47927;42.646;23.096;2022-08-19T10:06:08;92066.56;;;43.52;10.06
61963;BME280;47927;42.646;23.096;2022-08-19T10:08:36;92060.09;;;44.15;9.42
61963;BME280;47927;42.646;23.096;2022-08-19T10:11:03;92061.84;;;42.15;9.38
61963;BME280;47927;42.646;23.096;2022-08-19T10:13:31;92073.47;;;41.11;10.25
61963;BME280;47927;42.646;23.096;2022-08-19T10:16:03;92068.25;;;42.27;10.54
61963;BME280;47927;42.646;23.096;2022-08-19T10:18:29;92069.22;;;41.60;10.85
61963;BME280;47927;42.646;23.096;2022-08-19T10:21:05;92050.03;;;40.83;11.06
61963;BME280;47927;42.646;23.096;2022-08-19T10:23:38;92053.38;;;40.73;11.85
61963;BME280;47927;42.646;23.096;2022-08-19T10:26:05;92054.25;;;41.96;11.52
61963;BME280;47927;42.646;23.096;2022-08-19T10:28:33;92055.13;;;41.98;11.45
61963;BME280;47927;42.646;23.096;2022-08-19T10:31:03;92043.22;;;40.91;11.54
61963;BME280;47927;42.646;23.096;2022-08-19T10:33:30;92043.28;;;40.26;12.55
61963;BME280;47927;42.646;23.096;2022-08-19T10:36:00;92037.66;;;39.83;12.84
61963;BME280;47927;42.646;23.096;2022-08-19T10:38:26;92038.84;;;39.98;12.41
61963;BME280;47927;42.646;23.096;2022-08-19T10:40:54;92031.63;;;41.08;12.14
61963;BME280;47927;42.646;23.096;2022-08-19T10:43:20;92044.13;;;39.32;13.72
61963;BME280;47927;42.646;23.096;2022-08-19T10:45:52;92035.09;;;39.07;14.42
61963;BME280;47927;42.646;23.096;2022-08-19T10:48:19;92035.91;;;40.03;13.57
61963;BME280;47927;42.646;23.096;2022-08-19T10:50:44;92030.03;;;40.22;12.46
61963;BME280;47927;42.646;23.096;2022-08-19T10:53:28;92033.84;;;39.86;12.49
61963;BME280;47927;42.646;23.096;2022-08-19T10:55:54;92030.00;;;39.90;12.97
61963;BME280;47927;42.646;23.096;2022-08-19T10:58:37;92037.53;;;39.66;13.29
61963;BME280;47927;42.646;23.096;2022-08-19T11:01:03;92028.03;;;40.48;13.11
61963;BME280;47927;42.646;23.096;2022-08-19T11:03:29;92036.22;;;40.48;12.83
61963;BME280;47927;42.646;23.096;2022-08-19T11:06:00;92036.47;;;40.92;12.57
61963;BME280;47927;42.646;23.096;2022-08-19T11:08:26;92027.72;;;40.94;12.64
61963;BME280;47927;42.646;23.096;2022-08-19T11:10:53;92022.13;;;41.09;12.19
61963;BME280;47927;42.646;23.096;2022-08-19T11:13:22;92029.09;;;41.03;12.75
61963;BME280;47927;42.646;23.096;2022-08-19T11:15:59;92022.34;;;40.28;13.17
61963;BME280;47927;42.646;23.096;2022-08-19T11:18:25;92023.69;;;40.45;13.07
61963;BME280;47927;42.646;23.096;2022-08-19T11:20:51;92012.47;;;39.60;14.48
61963;BME280;47927;42.646;23.096;2022-08-19T11:23:18;92011.81;;;39.13;14.00
61963;BME280;47927;42.646;23.096;2022-08-19T11:25:44;92010.75;;;38.93;14.67
61963;BME280;47927;42.646;23.096;2022-08-19T11:28:11;92006.75;;;39.73;13.74
61963;BME280;47927;42.646;23.096;2022-08-19T11:30:38;92007.63;;;39.28;14.83
61963;BME280;47927;42.646;23.096;2022-08-19T11:33:04;92001.28;;;39.25;14.00
61963;BME280;47927;42.646;23.096;2022-08-19T11:35:29;92002.78;;;38.57;14.52
61963;BME280;47927;42.646;23.096;2022-08-19T11:37:55;91994.63;;;38.49;14.81
61963;BME280;47927;42.646;23.096;2022-08-19T11:40:23;91991.59;;;37.13;15.98
61963;BME280;47927;42.646;23.096;2022-08-19T11:42:48;91986.44;;;36.11;16.67
61963;BME280;47927;42.646;23.096;2022-08-19T11:45:24;91989.50;;;36.99;16.63
61963;BME280;47927;42.646;23.096;2022-08-19T11:47:50;91997.97;;;36.66;16.90
61963;BME280;47927;42.646;23.096;2022-08-19T11:50:16;91990.97;;;36.71;17.56
61963;BME280;47927;42.646;23.096;2022-08-19T11:52:43;91989.34;;;36.76;17.36
61963;BME280;47927;42.646;23.096;2022-08-19T11:55:11;91981.94;;;36.34;17.47
61963;BME280;47927;42.646;23.096;2022-08-19T11:57:37;91979.25;;;36.55;17.42
61963;BME280;47927;42.646;23.096;2022-08-19T12:00:04;91971.56;;;35.70;17.33
61963;BME280;47927;42.646;23.096;2022-08-19T12:02:31;91972.09;;;35.68;18.32
61963;BME280;47927;42.646;23.096;2022-08-19T12:04:57;91967.72;;;35.65;18.08
61963;BME280;47927;42.646;23.096;2022-08-19T12:07:22;91963.16;;;35.47;18.28
61963;BME280;47927;42.646;23.096;2022-08-19T12:09:48;91962.75;;;35.03;19.31
61963;BME280;47927;42.646;23.096;2022-08-19T12:12:14;91966.13;;;35.22;19.04
61963;BME280;47927;42.646;23.096;2022-08-19T12:14:40;91962.72;;;35.43;19.54
61963;BME280;47927;42.646;23.096;2022-08-19T12:17:05;91963.31;;;35.96;18.16
61963;BME280;47927;42.646;23.096;2022-08-19T12:19:33;91947.25;;;36.12;17.75
61963;BME280;47927;42.646;23.096;2022-08-19T12:22:00;91957.31;;;37.03;16.98
61963;BME280;47927;42.646;23.096;2022-08-19T12:24:32;91950.56;;;36.67;16.58
61963;BME280;47927;42.646;23.096;2022-08-19T12:26:58;91954.44;;;37.01;16.31
61963;BME280;47927;42.646;23.096;2022-08-19T12:29:27;91945.19;;;36.25;17.62
61963;BME280;47927;42.646;23.096;2022-08-19T12:32:13;91940.31;;;35.08;18.12
61963;BME280;47927;42.646;23.096;2022-08-19T12:34:38;91934.66;;;34.20;19.01
61963;BME280;47927;42.646;23.096;2022-08-19T12:37:05;91942.66;;;35.38;19.32
61963;BME280;47927;42.646;23.096;2022-08-19T12:39:40;91951.59;;;35.80;17.98
61963;BME280;47927;42.646;23.096;2022-08-19T12:42:07;91937.66;;;35.29;18.84
61963;BME280;47927;42.646;23.096;2022-08-19T12:44:35;91933.63;;;35.22;19.00
61963;BME280;47927;42.646;23.096;2022-08-19T12:47:00;91931.75;;;34.90;18.80
61963;BME280;47927;42.646;23.096;2022-08-19T12:49:31;91931.50;;;36.10;18.19
61963;BME280;47927;42.646;23.096;2022-08-19T12:52:00;91925.66;;;36.48;17.90
61963;BME280;47927;42.646;23.096;2022-08-19T12:54:26;91932.72;;;36.51;17.50
61963;BME280;47927;42.646;23.096;2022-08-19T12:56:52;91921.63;;;36.62;17.61
61963;BME280;47927;42.646;23.096;2022-08-19T12:59:17;91924.59;;;36.51;17.73